sensor_id;sensor_type;location;lat;lon;timestamp;P1;durP1;ratioP1;P2;durP2;ratioP2
51298;SDS011;37382;45.192;9.790;2022-10-23T00:01:31;16.77;;;9.20;;
51298;SDS011;37382;45.192;9.790;2022-10-23T00:04:10;12.73;;;8.63;;
51298;SDS011;37382;45.192;9.790;2022-10-23T00:06:40;13.70;;;9.40;;
51298;SDS011;37382;45.192;9.790;2022-10-23T00:09:08;14.43;;;9.88;;
51298;SDS011;37382;45.192;9.790;2022-10-23T00:11:38;21.27;;;10.00;;
51298;SDS011;37382;45.192;9.790;2022-10-23T00:14:07;21.98;;;10.40;;
51298;SDS011;37382;45.192;9.790;2022-10-23T00:16:35;16.65;;;10.02;;
51298;SDS011;37382;45.192;9.790;2022-10-23T00:19:03;15.40;;;10.70;;
51298;SDS011;37382;45.192;9.790;2022-10-23T00:21:31;22.38;;;10.30;;
51298;SDS011;37382;45.192;9.790;2022-10-23T00:23:59;24.85;;;10.77;;
51298;SDS011;37382;45.192;9.790;2022-10-23T00:26:26;19.58;;;10.95;;
51298;SDS011;37382;45.192;9.790;2022-10-23T00:28:55;13.27;;;11.10;;
51298;SDS011;37382;45.192;9.790;2022-10-23T00:31:23;19.25;;;12.05;;
51298;SDS011;37382;45.192;9.790;2022-10-23T00:33:51;19.33;;;11.65;;
51298;SDS011;37382;45.192;9.790;2022-10-23T00:36:20;19.42;;;11.60;;
51298;SDS011;37382;45.192;9.790;2022-10-23T00:38:49;16.33;;;11.20;;
51298;SDS011;37382;45.192;9.790;2022-10-23T00:41:19;17.27;;;11.65;;
51298;SDS011;37382;45.192;9.790;2022-10-23T00:46:21;18.30;;;12.93;;
51298;SDS011;37382;45.192;9.790;2022-10-23T00:48:49;17.08;;;12.40;;
51298;SDS011;37382;45.192;9.790;2022-10-23T00:51:17;20.20;;;12.15;;
51298;SDS011;37382;45.192;9.790;2022-10-23T00:53:44;16.80;;;12.40;;
51298;SDS011;37382;45.192;9.790;2022-10-23T00:56:36;18.73;;;12.52;;
51298;SDS011;37382;45.192;9.790;2022-10-23T00:59:05;20.13;;;12.57;;
51298;SDS011;37382;45.192;9.790;2022-10-23T01:01:33;23.10;;;12.07;;
51298;SDS011;37382;45.192;9.790;2022-10-23T01:04:02;20.83;;;12.02;;
51298;SDS011;37382;45.192;9.790;2022-10-23T01:06:34;29.33;;;12.50;;
51298;SDS011;37382;45.192;9.790;2022-10-23T01:17:29;17.23;;;10.20;;
51298;SDS011;37382;45.192;9.790;2022-10-23T01:25:49;14.52;;;10.32;;
51298;SDS011;37382;45.192;9.790;2022-10-23T01:28:32;12.95;;;9.27;;
51298;SDS011;37382;45.192;9.790;2022-10-23T01:31:07;13.05;;;9.38;;
51298;SDS011;37382;45.192;9.790;2022-10-23T01:33:41;15.85;;;10.15;;
51298;SDS011;37382;45.192;9.790;2022-10-23T01:36:27;16.75;;;10.07;;
51298;SDS011;37382;45.192;9.790;2022-10-23T01:39:09;15.85;;;9.73;;
51298;SDS011;37382;45.192;9.790;2022-10-23T01:41:49;12.63;;;10.00;;
51298;SDS011;37382;45.192;9.790;2022-10-23T01:44:27;14.73;;;9.50;;
51298;SDS011;37382;45.192;9.790;2022-10-23T01:47:01;14.15;;;9.98;;
51298;SDS011;37382;45.192;9.790;2022-10-23T01:49:35;13.27;;;9.48;;
51298;SDS011;37382;45.192;9.790;2022-10-23T01:52:07;12.35;;;9.20;;
51298;SDS011;37382;45.192;9.790;2022-10-23T01:54:42;14.63;;;9.15;;
51298;SDS011;37382;45.192;9.790;2022-10-23T01:57:12;11.90;;;9.25;;
51298;SDS011;37382;45.192;9.790;2022-10-23T01:59:46;13.85;;;8.93;;
51298;SDS011;37382;45.192;9.790;2022-10-23T02:02:18;14.07;;;9.18;;
51298;SDS011;37382;45.192;9.790;2022-10-23T02:04:59;14.95;;;9.10;;
51298;SDS011;37382;45.192;9.790;2022-10-23T02:07:28;14.20;;;9.13;;
51298;SDS011;37382;45.192;9.790;2022-10-23T02:09:57;14.35;;;10.15;;
51298;SDS011;37382;45.192;9.790;2022-10-23T02:20:27;11.57;;;8.43;;
51298;SDS011;37382;45.192;9.790;2022-10-23T02:26:02;11.30;;;8.43;;
51298;SDS011;37382;45.192;9.790;2022-10-23T02:28:48;14.82;;;8.90;;
51298;SDS011;37382;45.192;9.790;2022-10-23T02:31:18;10.85;;;8.30;;
51298;SDS011;37382;45.192;9.790;2022-10-23T02:33:49;10.77;;;8.30;;
51298;SDS011;37382;45.192;9.790;2022-10-23T02:36:17;15.40;;;8.45;;
51298;SDS011;37382;45.192;9.790;2022-10-23T02:38:45;12.23;;;8.38;;
51298;SDS011;37382;45.192;9.790;2022-10-23T02:43:41;14.68;;;8.77;;
51298;SDS011;37382;45.192;9.790;2022-10-23T02:46:50;12.60;;;8.75;;
51298;SDS011;37382;45.192;9.790;2022-10-23T02:55:55;10.68;;;8.38;;
51298;SDS011;37382;45.192;9.790;2022-10-23T03:01:54;10.05;;;8.38;;
51298;SDS011;37382;45.192;9.790;2022-10-23T03:04:28;10.65;;;8.30;;
51298;SDS011;37382;45.192;9.790;2022-10-23T03:06:57;12.93;;;8.68;;
51298;SDS011;37382;45.192;9.790;2022-10-23T03:09:25;14.05;;;8.60;;
51298;SDS011;37382;45.192;9.790;2022-10-23T03:11:53;15.05;;;9.25;;
51298;SDS011;37382;45.192;9.790;2022-10-23T03:14:21;11.07;;;8.77;;
51298;SDS011;37382;45.192;9.790;2022-10-23T03:16:49;12.82;;;8.82;;
51298;SDS011;37382;45.192;9.790;2022-10-23T03:19:16;17.45;;;9.57;;
51298;SDS011;37382;45.192;9.790;2022-10-23T03:21:44;17.95;;;9.38;;
51298;SDS011;37382;45.192;9.790;2022-10-23T03:24:11;11.60;;;9.02;;
51298;SDS011;37382;45.192;9.790;2022-10-23T03:26:41;10.68;;;8.68;;
51298;SDS011;37382;45.192;9.790;2022-10-23T03:29:09;11.50;;;9.05;;
51298;SDS011;37382;45.192;9.790;2022-10-23T03:31:42;13.60;;;8.70;;
51298;SDS011;37382;45.192;9.790;2022-10-23T03:34:09;10.98;;;8.90;;
51298;SDS011;37382;45.192;9.790;2022-10-23T03:36:39;12.90;;;9.27;;
51298;SDS011;37382;45.192;9.790;2022-10-23T03:39:08;11.05;;;9.45;;
51298;SDS011;37382;45.192;9.790;2022-10-23T03:41:36;15.68;;;9.18;;
51298;SDS011;37382;45.192;9.790;2022-10-23T03:44:03;13.10;;;9.07;;
51298;SDS011;37382;45.192;9.790;2022-10-23T03:46:36;13.70;;;9.32;;
51298;SDS011;37382;45.192;9.790;2022-10-23T03:49:03;10.77;;;8.52;;
51298;SDS011;37382;45.192;9.790;2022-10-23T03:51:31;9.93;;;8.70;;
51298;SDS011;37382;45.192;9.790;2022-10-23T03:53:59;14.75;;;9.25;;
51298;SDS011;37382;45.192;9.790;2022-10-23T03:56:26;15.05;;;9.95;;
51298;SDS011;37382;45.192;9.790;2022-10-23T03:58:54;14.38;;;8.88;;
51298;SDS011;37382;45.192;9.790;2022-10-23T04:01:24;12.85;;;9.43;;
51298;SDS011;37382;45.192;9.790;2022-10-23T04:03:52;10.98;;;9.13;;
51298;SDS011;37382;45.192;9.790;2022-10-23T04:06:19;12.80;;;9.20;;
51298;SDS011;37382;45.192;9.790;2022-10-23T04:08:47;12.85;;;9.13;;
51298;SDS011;37382;45.192;9.790;2022-10-23T04:11:17;12.82;;;9.32;;
51298;SDS011;37382;45.192;9.790;2022-10-23T04:13:45;13.65;;;9.93;;
51298;SDS011;37382;45.192;9.790;2022-10-23T04:16:13;15.60;;;10.10;;
51298;SDS011;37382;45.192;9.790;2022-10-23T04:18:43;12.45;;;9.88;;
51298;SDS011;37382;45.192;9.790;2022-10-23T04:21:11;13.35;;;9.70;;
51298;SDS011;37382;45.192;9.790;2022-10-23T04:23:39;12.27;;;9.88;;
51298;SDS011;37382;45.192;9.790;2022-10-23T04:26:12;12.45;;;10.13;;
51298;SDS011;37382;45.192;9.790;2022-10-23T04:28:39;12.25;;;10.35;;
51298;SDS011;37382;45.192;9.790;2022-10-23T04:31:06;12.50;;;10.30;;
51298;SDS011;37382;45.192;9.790;2022-10-23T04:33:34;18.92;;;10.55;;
51298;SDS011;37382;45.192;9.790;2022-10-23T04:36:01;13.48;;;10.82;;
51298;SDS011;37382;45.192;9.790;2022-10-23T04:38:29;16.85;;;11.00;;
51298;SDS011;37382;45.192;9.790;2022-10-23T04:40:57;16.40;;;11.20;;
51298;SDS011;37382;45.192;9.790;2022-10-23T04:43:25;12.38;;;9.63;;
51298;SDS011;37382;45.192;9.790;2022-10-23T04:45:52;14.35;;;10.30;;
51298;SDS011;37382;45.192;9.790;2022-10-23T04:48:20;15.00;;;11.45;;
51298;SDS011;37382;45.192;9.790;2022-10-23T04:51:12;13.85;;;10.48;;
51298;SDS011;37382;45.192;9.790;2022-10-23T04:54:09;17.58;;;11.70;;
51298;SDS011;37382;45.192;9.790;2022-10-23T04:57:02;15.43;;;11.38;;
51298;SDS011;37382;45.192;9.790;2022-10-23T04:59:47;12.18;;;10.50;;
51298;SDS011;37382;45.192;9.790;2022-10-23T05:02:14;18.90;;;10.98;;
51298;SDS011;37382;45.192;9.790;2022-10-23T05:04:41;17.20;;;11.35;;
51298;SDS011;37382;45.192;9.790;2022-10-23T05:07:38;17.98;;;11.60;;
51298;SDS011;37382;45.192;9.790;2022-10-23T05:10:33;16.83;;;12.02;;
51298;SDS011;37382;45.192;9.790;2022-10-23T05:13:06;14.55;;;11.20;;
51298;SDS011;37382;45.192;9.790;2022-10-23T05:15:34;14.82;;;10.65;;
51298;SDS011;37382;45.192;9.790;2022-10-23T05:18:07;19.40;;;12.10;;
51298;SDS011;37382;45.192;9.790;2022-10-23T05:20:47;17.15;;;11.45;;
51298;SDS011;37382;45.192;9.790;2022-10-23T05:23:18;20.40;;;12.07;;
51298;SDS011;37382;45.192;9.790;2022-10-23T05:25:55;18.00;;;11.40;;
51298;SDS011;37382;45.192;9.790;2022-10-23T05:28:23;20.38;;;11.95;;
51298;SDS011;37382;45.192;9.790;2022-10-23T05:30:50;22.33;;;11.48;;
51298;SDS011;37382;45.192;9.790;2022-10-23T05:33:23;16.55;;;12.02;;
51298;SDS011;37382;45.192;9.790;2022-10-23T05:35:51;15.88;;;12.30;;
51298;SDS011;37382;45.192;9.790;2022-10-23T05:38:21;16.80;;;12.02;;
51298;SDS011;37382;45.192;9.790;2022-10-23T05:40:52;17.77;;;12.25;;
51298;SDS011;37382;45.192;9.790;2022-10-23T05:43:22;22.90;;;13.50;;
51298;SDS011;37382;45.192;9.790;2022-10-23T05:46:02;19.25;;;12.43;;
51298;SDS011;37382;45.192;9.790;2022-10-23T05:48:31;18.35;;;12.20;;
51298;SDS011;37382;45.192;9.790;2022-10-23T05:51:20;16.90;;;12.40;;
51298;SDS011;37382;45.192;9.790;2022-10-23T05:54:14;14.13;;;12.57;;
51298;SDS011;37382;45.192;9.790;2022-10-23T05:56:47;16.75;;;12.55;;
51298;SDS011;37382;45.192;9.790;2022-10-23T05:59:20;16.60;;;11.88;;
51298;SDS011;37382;45.192;9.790;2022-10-23T06:02:09;18.27;;;11.88;;
51298;SDS011;37382;45.192;9.790;2022-10-23T06:04:48;20.52;;;11.82;;
51298;SDS011;37382;45.192;9.790;2022-10-23T06:07:41;15.85;;;11.95;;
51298;SDS011;37382;45.192;9.790;2022-10-23T06:10:10;16.83;;;12.73;;
51298;SDS011;37382;45.192;9.790;2022-10-23T06:12:43;18.50;;;11.90;;
51298;SDS011;37382;45.192;9.790;2022-10-23T06:15:14;15.15;;;12.05;;
51298;SDS011;37382;45.192;9.790;2022-10-23T06:17:58;19.83;;;12.10;;
51298;SDS011;37382;45.192;9.790;2022-10-23T06:20:29;15.27;;;11.45;;
51298;SDS011;37382;45.192;9.790;2022-10-23T06:23:07;17.48;;;11.57;;
51298;SDS011;37382;45.192;9.790;2022-10-23T06:26:10;16.35;;;11.65;;
51298;SDS011;37382;45.192;9.790;2022-10-23T06:28:51;17.40;;;11.73;;
51298;SDS011;37382;45.192;9.790;2022-10-23T06:31:19;16.95;;;12.45;;
51298;SDS011;37382;45.192;9.790;2022-10-23T06:33:51;19.85;;;11.85;;
51298;SDS011;37382;45.192;9.790;2022-10-23T06:36:19;18.08;;;12.32;;
51298;SDS011;37382;45.192;9.790;2022-10-23T06:38:47;13.40;;;10.70;;
51298;SDS011;37382;45.192;9.790;2022-10-23T06:41:16;18.50;;;11.63;;
51298;SDS011;37382;45.192;9.790;2022-10-23T06:43:49;18.58;;;11.07;;
51298;SDS011;37382;45.192;9.790;2022-10-23T06:46:23;19.42;;;11.60;;
51298;SDS011;37382;45.192;9.790;2022-10-23T06:49:31;19.00;;;11.13;;
51298;SDS011;37382;45.192;9.790;2022-10-23T06:52:01;14.43;;;10.80;;
51298;SDS011;37382;45.192;9.790;2022-10-23T06:54:29;19.60;;;10.45;;
51298;SDS011;37382;45.192;9.790;2022-10-23T06:57:19;14.35;;;10.65;;
51298;SDS011;37382;45.192;9.790;2022-10-23T06:59:48;24.52;;;10.50;;
51298;SDS011;37382;45.192;9.790;2022-10-23T07:02:17;17.10;;;10.60;;
51298;SDS011;37382;45.192;9.790;2022-10-23T07:04:48;15.95;;;10.05;;
51298;SDS011;37382;45.192;9.790;2022-10-23T07:07:18;12.43;;;9.10;;
51298;SDS011;37382;45.192;9.790;2022-10-23T07:09:48;17.27;;;10.07;;
51298;SDS011;37382;45.192;9.790;2022-10-23T07:12:34;16.45;;;10.07;;
51298;SDS011;37382;45.192;9.790;2022-10-23T07:15:25;13.50;;;8.82;;
51298;SDS011;37382;45.192;9.790;2022-10-23T07:17:54;14.63;;;9.25;;
51298;SDS011;37382;45.192;9.790;2022-10-23T07:20:23;19.92;;;10.55;;
51298;SDS011;37382;45.192;9.790;2022-10-23T07:22:51;18.67;;;10.82;;
51298;SDS011;37382;45.192;9.790;2022-10-23T07:25:27;23.73;;;14.18;;
51298;SDS011;37382;45.192;9.790;2022-10-23T07:27:54;27.08;;;15.40;;
51298;SDS011;37382;45.192;9.790;2022-10-23T07:30:24;32.38;;;17.52;;
51298;SDS011;37382;45.192;9.790;2022-10-23T07:32:54;39.92;;;18.35;;
51298;SDS011;37382;45.192;9.790;2022-10-23T07:35:37;43.88;;;19.45;;
51298;SDS011;37382;45.192;9.790;2022-10-23T07:38:13;40.45;;;18.90;;
51298;SDS011;37382;45.192;9.790;2022-10-23T07:40:46;40.83;;;18.73;;
51298;SDS011;37382;45.192;9.790;2022-10-23T07:43:16;37.83;;;18.80;;
51298;SDS011;37382;45.192;9.790;2022-10-23T07:45:46;42.53;;;19.10;;
51298;SDS011;37382;45.192;9.790;2022-10-23T07:48:33;28.50;;;16.17;;
51298;SDS011;37382;45.192;9.790;2022-10-23T07:51:03;28.55;;;14.13;;
51298;SDS011;37382;45.192;9.790;2022-10-23T07:53:38;25.52;;;12.90;;
51298;SDS011;37382;45.192;9.790;2022-10-23T07:56:17;23.40;;;11.27;;
51298;SDS011;37382;45.192;9.790;2022-10-23T07:59:10;19.70;;;10.05;;
51298;SDS011;37382;45.192;9.790;2022-10-23T08:01:40;17.38;;;10.30;;
51298;SDS011;37382;45.192;9.790;2022-10-23T08:04:09;16.77;;;9.73;;
51298;SDS011;37382;45.192;9.790;2022-10-23T08:06:45;19.15;;;10.00;;
51298;SDS011;37382;45.192;9.790;2022-10-23T08:09:13;23.08;;;9.85;;
51298;SDS011;37382;45.192;9.790;2022-10-23T08:11:42;22.23;;;9.75;;
51298;SDS011;37382;45.192;9.790;2022-10-23T08:14:14;19.95;;;10.00;;
51298;SDS011;37382;45.192;9.790;2022-10-23T08:16:43;20.88;;;10.45;;
51298;SDS011;37382;45.192;9.790;2022-10-23T08:19:30;18.08;;;10.20;;
51298;SDS011;37382;45.192;9.790;2022-10-23T08:22:01;15.30;;;10.23;;
51298;SDS011;37382;45.192;9.790;2022-10-23T08:24:29;20.63;;;10.10;;
51298;SDS011;37382;45.192;9.790;2022-10-23T08:26:57;13.45;;;10.15;;
51298;SDS011;37382;45.192;9.790;2022-10-23T08:29:27;17.23;;;11.02;;
51298;SDS011;37382;45.192;9.790;2022-10-23T08:31:54;16.05;;;10.23;;
51298;SDS011;37382;45.192;9.790;2022-10-23T08:34:27;15.63;;;10.02;;
51298;SDS011;37382;45.192;9.790;2022-10-23T08:36:55;15.77;;;9.82;;
51298;SDS011;37382;45.192;9.790;2022-10-23T08:39:23;16.90;;;9.27;;
51298;SDS011;37382;45.192;9.790;2022-10-23T08:42:02;15.73;;;9.18;;
51298;SDS011;37382;45.192;9.790;2022-10-23T08:47:16;12.98;;;9.15;;
51298;SDS011;37382;45.192;9.790;2022-10-23T08:50:39;12.82;;;8.20;;
51298;SDS011;37382;45.192;9.790;2022-10-23T08:56:02;15.18;;;8.38;;
51298;SDS011;37382;45.192;9.790;2022-10-23T08:58:49;20.27;;;9.15;;
51298;SDS011;37382;45.192;9.790;2022-10-23T09:01:29;14.30;;;8.50;;
51298;SDS011;37382;45.192;9.790;2022-10-23T09:03:58;17.40;;;8.80;;
51298;SDS011;37382;45.192;9.790;2022-10-23T09:06:40;34.75;;;8.55;;
51298;SDS011;37382;45.192;9.790;2022-10-23T09:11:51;14.77;;;8.30;;
51298;SDS011;37382;45.192;9.790;2022-10-23T09:17:26;14.27;;;9.13;;
51298;SDS011;37382;45.192;9.790;2022-10-23T09:22:54;16.25;;;8.85;;
51298;SDS011;37382;45.192;9.790;2022-10-23T09:25:27;13.60;;;7.80;;
51298;SDS011;37382;45.192;9.790;2022-10-23T09:27:57;15.25;;;8.25;;
51298;SDS011;37382;45.192;9.790;2022-10-23T09:33:21;17.02;;;8.93;;
51298;SDS011;37382;45.192;9.790;2022-10-23T09:38:28;16.17;;;8.95;;
51298;SDS011;37382;45.192;9.790;2022-10-23T09:41:10;14.68;;;8.35;;
51298;SDS011;37382;45.192;9.790;2022-10-23T09:43:42;12.07;;;8.50;;
51298;SDS011;37382;45.192;9.790;2022-10-23T09:46:11;21.92;;;8.30;;
51298;SDS011;37382;45.192;9.790;2022-10-23T09:48:39;17.25;;;8.95;;
51298;SDS011;37382;45.192;9.790;2022-10-23T09:53:57;12.40;;;7.38;;
51298;SDS011;37382;45.192;9.790;2022-10-23T09:56:33;20.92;;;8.57;;
51298;SDS011;37382;45.192;9.790;2022-10-23T10:01:50;15.05;;;9.23;;
51298;SDS011;37382;45.192;9.790;2022-10-23T10:04:46;17.52;;;7.95;;
51298;SDS011;37382;45.192;9.790;2022-10-23T10:07:19;21.83;;;9.18;;
51298;SDS011;37382;45.192;9.790;2022-10-23T10:09:54;16.13;;;8.90;;
51298;SDS011;37382;45.192;9.790;2022-10-23T10:12:46;13.18;;;8.85;;
51298;SDS011;37382;45.192;9.790;2022-10-23T10:15:31;17.08;;;9.30;;
51298;SDS011;37382;45.192;9.790;2022-10-23T10:18:21;15.20;;;7.28;;
51298;SDS011;37382;45.192;9.790;2022-10-23T10:23:46;12.02;;;7.72;;
51298;SDS011;37382;45.192;9.790;2022-10-23T10:26:28;16.33;;;7.63;;
51298;SDS011;37382;45.192;9.790;2022-10-23T10:32:15;16.90;;;7.55;;
51298;SDS011;37382;45.192;9.790;2022-10-23T10:50:03;12.98;;;7.82;;
51298;SDS011;37382;45.192;9.790;2022-10-23T10:55:37;14.02;;;8.50;;
51298;SDS011;37382;45.192;9.790;2022-10-23T10:58:12;22.67;;;8.73;;
51298;SDS011;37382;45.192;9.790;2022-10-23T11:00:45;18.52;;;8.88;;
51298;SDS011;37382;45.192;9.790;2022-10-23T11:06:10;12.20;;;6.95;;
51298;SDS011;37382;45.192;9.790;2022-10-23T11:08:41;10.93;;;7.72;;
51298;SDS011;37382;45.192;9.790;2022-10-23T11:14:16;19.40;;;7.65;;
51298;SDS011;37382;45.192;9.790;2022-10-23T11:16:47;13.75;;;8.10;;
51298;SDS011;37382;45.192;9.790;2022-10-23T11:19:19;30.13;;;8.38;;
51298;SDS011;37382;45.192;9.790;2022-10-23T11:24:39;14.48;;;7.70;;
51298;SDS011;37382;45.192;9.790;2022-10-23T11:30:11;12.65;;;7.55;;
51298;SDS011;37382;45.192;9.790;2022-10-23T11:35:40;17.95;;;8.18;;
51298;SDS011;37382;45.192;9.790;2022-10-23T11:38:25;20.35;;;8.85;;
51298;SDS011;37382;45.192;9.790;2022-10-23T11:40:59;19.88;;;8.60;;
51298;SDS011;37382;45.192;9.790;2022-10-23T11:43:34;19.67;;;8.15;;
51298;SDS011;37382;45.192;9.790;2022-10-23T11:48:49;20.45;;;8.65;;
51298;SDS011;37382;45.192;9.790;2022-10-23T11:59:49;21.02;;;9.40;;
51298;SDS011;37382;45.192;9.790;2022-10-23T12:02:52;22.85;;;8.73;;
51298;SDS011;37382;45.192;9.790;2022-10-23T12:05:33;14.77;;;7.28;;
51298;SDS011;37382;45.192;9.790;2022-10-23T12:08:07;28.58;;;8.75;;
51298;SDS011;37382;45.192;9.790;2022-10-23T12:10:48;25.98;;;9.10;;
51298;SDS011;37382;45.192;9.790;2022-10-23T12:13:27;24.02;;;9.20;;
51298;SDS011;37382;45.192;9.790;2022-10-23T12:16:04;16.35;;;9.35;;
51298;SDS011;37382;45.192;9.790;2022-10-23T12:18:49;14.60;;;8.25;;
51298;SDS011;37382;45.192;9.790;2022-10-23T12:21:23;19.88;;;9.05;;
51298;SDS011;37382;45.192;9.790;2022-10-23T12:24:06;17.98;;;8.02;;
51298;SDS011;37382;45.192;9.790;2022-10-23T12:29:33;17.20;;;8.82;;
51298;SDS011;37382;45.192;9.790;2022-10-23T12:40:50;22.52;;;8.88;;
51298;SDS011;37382;45.192;9.790;2022-10-23T12:43:26;19.10;;;8.55;;
51298;SDS011;37382;45.192;9.790;2022-10-23T12:48:52;22.02;;;9.35;;
51298;SDS011;37382;45.192;9.790;2022-10-23T12:51:28;15.10;;;8.40;;
51298;SDS011;37382;45.192;9.790;2022-10-23T12:53:58;21.88;;;8.68;;
51298;SDS011;37382;45.192;9.790;2022-10-23T12:56:32;16.42;;;8.48;;
51298;SDS011;37382;45.192;9.790;2022-10-23T12:59:02;18.65;;;8.82;;
51298;SDS011;37382;45.192;9.790;2022-10-23T13:01:32;27.35;;;9.95;;
51298;SDS011;37382;45.192;9.790;2022-10-23T13:04:12;21.02;;;9.02;;
51298;SDS011;37382;45.192;9.790;2022-10-23T13:06:47;20.42;;;8.30;;
51298;SDS011;37382;45.192;9.790;2022-10-23T13:12:25;22.30;;;8.70;;
51298;SDS011;37382;45.192;9.790;2022-10-23T13:14:56;20.67;;;9.30;;
51298;SDS011;37382;45.192;9.790;2022-10-23T13:17:44;21.92;;;8.88;;
51298;SDS011;37382;45.192;9.790;2022-10-23T13:22:48;17.33;;;8.75;;
51298;SDS011;37382;45.192;9.790;2022-10-23T13:25:28;17.13;;;9.20;;
51298;SDS011;37382;45.192;9.790;2022-10-23T13:28:10;18.58;;;8.85;;
51298;SDS011;37382;45.192;9.790;2022-10-23T13:31:02;18.90;;;8.10;;
51298;SDS011;37382;45.192;9.790;2022-10-23T13:33:40;23.30;;;9.45;;
51298;SDS011;37382;45.192;9.790;2022-10-23T13:38:41;20.45;;;8.88;;
51298;SDS011;37382;45.192;9.790;2022-10-23T13:41:16;20.95;;;9.25;;
51298;SDS011;37382;45.192;9.790;2022-10-23T13:43:46;20.20;;;8.32;;
51298;SDS011;37382;45.192;9.790;2022-10-23T13:46:15;16.95;;;8.75;;
51298;SDS011;37382;45.192;9.790;2022-10-23T13:48:44;22.05;;;8.95;;
51298;SDS011;37382;45.192;9.790;2022-10-23T13:51:13;18.20;;;7.90;;
51298;SDS011;37382;45.192;9.790;2022-10-23T13:53:42;20.63;;;9.07;;
51298;SDS011;37382;45.192;9.790;2022-10-23T13:56:11;19.50;;;8.77;;
51298;SDS011;37382;45.192;9.790;2022-10-23T13:58:39;19.27;;;8.73;;
51298;SDS011;37382;45.192;9.790;2022-10-23T14:01:11;20.83;;;8.32;;
51298;SDS011;37382;45.192;9.790;2022-10-23T14:03:49;20.55;;;9.05;;
51298;SDS011;37382;45.192;9.790;2022-10-23T14:06:17;24.33;;;8.07;;
51298;SDS011;37382;45.192;9.790;2022-10-23T14:08:45;27.20;;;8.02;;
51298;SDS011;37382;45.192;9.790;2022-10-23T14:11:14;19.80;;;7.57;;
51298;SDS011;37382;45.192;9.790;2022-10-23T14:13:43;22.38;;;8.65;;
51298;SDS011;37382;45.192;9.790;2022-10-23T14:16:12;21.80;;;7.90;;
51298;SDS011;37382;45.192;9.790;2022-10-23T14:18:40;19.65;;;8.07;;
51298;SDS011;37382;45.192;9.790;2022-10-23T14:21:09;18.13;;;7.35;;
51298;SDS011;37382;45.192;9.790;2022-10-23T14:23:38;17.02;;;8.45;;
51298;SDS011;37382;45.192;9.790;2022-10-23T14:26:07;31.73;;;7.85;;
51298;SDS011;37382;45.192;9.790;2022-10-23T14:28:36;18.25;;;7.38;;
51298;SDS011;37382;45.192;9.790;2022-10-23T14:31:05;17.92;;;8.38;;
51298;SDS011;37382;45.192;9.790;2022-10-23T14:33:37;20.10;;;7.97;;
51298;SDS011;37382;45.192;9.790;2022-10-23T14:36:05;20.23;;;7.75;;
51298;SDS011;37382;45.192;9.790;2022-10-23T14:38:33;19.30;;;7.72;;
51298;SDS011;37382;45.192;9.790;2022-10-23T14:41:01;23.58;;;8.77;;
51298;SDS011;37382;45.192;9.790;2022-10-23T14:43:29;24.30;;;8.68;;
51298;SDS011;37382;45.192;9.790;2022-10-23T14:45:56;19.52;;;8.85;;
51298;SDS011;37382;45.192;9.790;2022-10-23T14:48:23;24.13;;;8.00;;
51298;SDS011;37382;45.192;9.790;2022-10-23T14:50:51;15.43;;;7.28;;
51298;SDS011;37382;45.192;9.790;2022-10-23T14:53:19;19.20;;;8.90;;
51298;SDS011;37382;45.192;9.790;2022-10-23T14:55:47;22.15;;;7.88;;
51298;SDS011;37382;45.192;9.790;2022-10-23T14:58:14;21.65;;;7.13;;
51298;SDS011;37382;45.192;9.790;2022-10-23T15:00:42;18.00;;;7.40;;
51298;SDS011;37382;45.192;9.790;2022-10-23T15:03:09;14.68;;;7.13;;
51298;SDS011;37382;45.192;9.790;2022-10-23T15:05:40;18.45;;;6.72;;
51298;SDS011;37382;45.192;9.790;2022-10-23T15:08:08;20.30;;;7.13;;
51298;SDS011;37382;45.192;9.790;2022-10-23T15:10:36;18.10;;;8.35;;
51298;SDS011;37382;45.192;9.790;2022-10-23T15:13:05;14.32;;;7.68;;
51298;SDS011;37382;45.192;9.790;2022-10-23T15:15:32;21.85;;;7.45;;
51298;SDS011;37382;45.192;9.790;2022-10-23T15:18:00;20.60;;;8.93;;
51298;SDS011;37382;45.192;9.790;2022-10-23T15:20:28;15.48;;;7.70;;
51298;SDS011;37382;45.192;9.790;2022-10-23T15:22:55;21.15;;;8.05;;
51298;SDS011;37382;45.192;9.790;2022-10-23T15:25:22;18.27;;;8.05;;
51298;SDS011;37382;45.192;9.790;2022-10-23T15:27:49;19.65;;;8.55;;
51298;SDS011;37382;45.192;9.790;2022-10-23T15:30:17;18.88;;;8.10;;
51298;SDS011;37382;45.192;9.790;2022-10-23T15:32:45;20.67;;;7.60;;
51298;SDS011;37382;45.192;9.790;2022-10-23T15:35:13;27.00;;;8.55;;
51298;SDS011;37382;45.192;9.790;2022-10-23T15:37:40;23.80;;;8.45;;
51298;SDS011;37382;45.192;9.790;2022-10-23T15:40:08;19.25;;;7.95;;
51298;SDS011;37382;45.192;9.790;2022-10-23T15:42:35;21.90;;;8.77;;
51298;SDS011;37382;45.192;9.790;2022-10-23T15:45:03;24.58;;;8.48;;
51298;SDS011;37382;45.192;9.790;2022-10-23T15:47:31;14.80;;;7.60;;
51298;SDS011;37382;45.192;9.790;2022-10-23T15:49:58;27.63;;;9.05;;
51298;SDS011;37382;45.192;9.790;2022-10-23T15:52:25;17.65;;;8.18;;
51298;SDS011;37382;45.192;9.790;2022-10-23T15:54:53;24.23;;;8.25;;
51298;SDS011;37382;45.192;9.790;2022-10-23T15:57:20;21.95;;;8.07;;
51298;SDS011;37382;45.192;9.790;2022-10-23T15:59:47;18.92;;;8.25;;
51298;SDS011;37382;45.192;9.790;2022-10-23T16:02:17;19.15;;;8.40;;
51298;SDS011;37382;45.192;9.790;2022-10-23T16:04:45;18.65;;;8.25;;
51298;SDS011;37382;45.192;9.790;2022-10-23T16:07:12;28.98;;;9.63;;
51298;SDS011;37382;45.192;9.790;2022-10-23T16:09:40;26.08;;;9.48;;
51298;SDS011;37382;45.192;9.790;2022-10-23T16:12:07;16.30;;;9.77;;
51298;SDS011;37382;45.192;9.790;2022-10-23T16:14:35;22.67;;;9.60;;
51298;SDS011;37382;45.192;9.790;2022-10-23T16:17:04;34.28;;;11.65;;
51298;SDS011;37382;45.192;9.790;2022-10-23T16:19:33;28.30;;;11.68;;
51298;SDS011;37382;45.192;9.790;2022-10-23T16:22:01;23.65;;;10.80;;
51298;SDS011;37382;45.192;9.790;2022-10-23T16:24:29;31.40;;;13.40;;
51298;SDS011;37382;45.192;9.790;2022-10-23T16:26:57;27.00;;;15.18;;
51298;SDS011;37382;45.192;9.790;2022-10-23T16:29:25;31.38;;;13.63;;
51298;SDS011;37382;45.192;9.790;2022-10-23T16:31:54;37.03;;;12.07;;
51298;SDS011;37382;45.192;9.790;2022-10-23T16:34:23;27.75;;;11.75;;
51298;SDS011;37382;45.192;9.790;2022-10-23T16:36:50;22.05;;;10.63;;
51298;SDS011;37382;45.192;9.790;2022-10-23T16:39:36;19.67;;;9.45;;
51298;SDS011;37382;45.192;9.790;2022-10-23T16:42:22;18.88;;;8.93;;
51298;SDS011;37382;45.192;9.790;2022-10-23T16:45:02;20.48;;;9.68;;
51298;SDS011;37382;45.192;9.790;2022-10-23T16:47:30;25.65;;;9.98;;
51298;SDS011;37382;45.192;9.790;2022-10-23T16:49:58;31.05;;;10.77;;
51298;SDS011;37382;45.192;9.790;2022-10-23T16:52:26;24.08;;;11.10;;
51298;SDS011;37382;45.192;9.790;2022-10-23T16:54:54;25.95;;;10.10;;
51298;SDS011;37382;45.192;9.790;2022-10-23T16:57:22;23.13;;;11.52;;
51298;SDS011;37382;45.192;9.790;2022-10-23T16:59:53;34.15;;;14.10;;
51298;SDS011;37382;45.192;9.790;2022-10-23T17:02:20;25.98;;;13.38;;
51298;SDS011;37382;45.192;9.790;2022-10-23T17:04:48;28.40;;;13.10;;
51298;SDS011;37382;45.192;9.790;2022-10-23T17:07:16;34.13;;;13.85;;
51298;SDS011;37382;45.192;9.790;2022-10-23T17:09:44;25.85;;;12.40;;
51298;SDS011;37382;45.192;9.790;2022-10-23T17:12:15;20.38;;;11.93;;
51298;SDS011;37382;45.192;9.790;2022-10-23T17:14:43;26.80;;;13.07;;
51298;SDS011;37382;45.192;9.790;2022-10-23T17:17:11;31.35;;;13.05;;
51298;SDS011;37382;45.192;9.790;2022-10-23T17:19:38;34.58;;;12.23;;